Аэропорт: Большое Савино. Пермь

ICAO: USPP

METAR:
2018/11/19 10:00
USPP 191000Z 29002MPS 3300 -SN BR OVC003 01/M00 Q1021 R21/690250 TEMPO 1000 SHSN VV001 RMK QBB090 QFE755
METAR:
2018/11/19 08:21
TAF 
      AMD USPP 190815Z 1908/2009 29003MPS 3100 -SN BR OVC005 
      TEMPO 1908/1910 1100 SHSN VV003 
      BECMG 1910/1912 OVC011 
      BECMG 1912/1914 36003MPS 
      BECMG 1915/1917 6000 -SN